Terminal Aerodrome Forecast
Issued by NWS

Home | Current Version | Previous Version | Text Only | Print | Product List | Glossary On
Versions: 1 2 3 4 5 6 7 8 9 10 11 12 13 14 15 16 17
000
FTUS45 KRIW 240500
TAFCOD
TAF
KCOD 240521Z 2406/2506 18007KT P6SM BKN100 WS020/26040KT
     FM241000 26015G25KT P6SM SCT120 BKN250
     FM241500 VRB05KT P6SM SCT120 BKN250
     FM242000 25014G20KT P6SM SCT250
     FM250200 20010KT P6SM SKC
      AMD LTD TO CLD VIS AND WIND=

USA.gov is the U.S. government's official web portal to all federal, state and local government web resources and services.